KR-0453 weather

Dadae-dong Heliport
Busan, Busan Gwang'yeogsi, South Korea

Public forecast

Using degrees Celsius for public forecast. Weather courtesy of forecast.io.

METAR (pilot weather report)

Closest report is Gimhae International Airport, 7.5 nm (13.9 km) NNW. Retrieved 2019/07/22 20:00 UTC (8 minutes ago):

RKPK 222000Z 16002KT 4800 BR SCT050 SCT200 25/23 Q1006

TAF (pilot weather forecast)

Closest forecast is Gimhae International Airport, 7.5 nm (13.9 km) NNW. Retrieved 2019/07/22 18:00 UTC (2 hours ago):

TAF RKPK 221700Z 2218/2324 33006KT 4800 BR SCT030 BKN200 TN22/2220Z TX31/2306Z BECMG 2219/2220 3200 BECMG 2223/2224 4800 BECMG 2301/2302 9000 NSW